Time;durP1;ratioP1;P1;durP2;ratioP2;P2;SDS_P1;SDS_P2;PMS_P1;PMS_P2;Temp;Humidity;BMP_temperature;BMP_pressure;BME280_temperature;BME280_humidity;BME280_pressure;Samples;Min_cycle;Max_cycle;Signal;HPM_P1;HPM_P2
2021/12/29 00:00:09;;;;;;;;;;;;;;;;;;5070822;28;959;-61
2021/12/29 00:02:35;;;;;;;;;;;;;;;;;;5071021;28;1272;-62
2021/12/29 00:05:00;;;;;;;;;;;;;;;;;;5069086;28;1290;-62
2021/12/29 00:07:26;;;;;;;;;;;;;;;;;;5073413;28;1004;-62
2021/12/29 00:09:51;;;;;;;;;;;;;;;;;;5074267;28;916;-61
2021/12/29 00:12:24;;;;;;;;;;;;;;;;;;5074382;28;889;-61
2021/12/29 00:14:49;;;;;;;;;;;;;;;;;;5074431;28;924;-61
2021/12/29 00:17:15;;;;;;;;;;;;;;;;;;5073824;28;824;-62
2021/12/29 00:19:40;;;;;;;;;;;;;;;;;;5074962;28;1003;-61
2021/12/29 00:22:05;;;;;;;;;;;;;;;;;;5073796;28;849;-61
2021/12/29 00:24:31;;;;;;;;;;;;;;;;;;5074244;28;884;-60
2021/12/29 00:26:56;;;;;;;;;;;;;;;;;;5074083;28;889;-60
2021/12/29 00:29:21;;;;;;;;;;;;;;;;;;5073913;28;825;-60
2021/12/29 00:31:46;;;;;;;;;;;;;;;;;;5074356;28;829;-60
2021/12/29 00:34:12;;;;;;;;;;;;;;;;;;5073890;28;1972;-60
2021/12/29 00:36:37;;;;;;;;;;;;;;;;;;5072822;28;1461;-60
2021/12/29 00:39:02;;;;;;;;;;;;;;;;;;5073766;28;963;-60
2021/12/29 00:41:28;;;;;;;;;;;;;;;;;;5072646;28;1061;-60
2021/12/29 00:43:55;;;;;;;;;;;;;;;;;;5073993;28;1247;-60
2021/12/29 00:46:20;;;;;;;;;;;;;;;;;;5074287;28;912;-61
2021/12/29 00:48:47;;;;;;;;;;;;;;;;;;5074476;28;809;-60
2021/12/29 00:51:13;;;;;;;;;;;;;;;;;;5074000;28;876;-61
2021/12/29 00:53:38;;;;;;;;;;;;;;;;;;5073929;28;1976;-61
2021/12/29 00:56:04;;;;;;;;;;;;;;;;;;5074059;28;881;-61
2021/12/29 00:58:30;;;;;;;;;;;;;;;;;;5074149;28;935;-60
2021/12/29 01:00:55;;;;;;;;;;;;;;;;;;5073780;28;962;-61
2021/12/29 01:03:21;;;;;;;;;;;;;;;;;;5073473;28;800;-60
2021/12/29 01:05:46;;;;;;;;;;;;;;;;;;5074437;28;883;-61
2021/12/29 01:08:11;;;;;;;;;;;;;;;;;;5073271;28;837;-61
2021/12/29 01:10:37;;;;;;;;;;;;;;;;;;5073518;28;816;-61
2021/12/29 01:13:03;;;;;;;;;;;;;;;;;;5073534;28;1953;-61
2021/12/29 01:15:33;;;;;;;;;;;;;;;;;;5073335;28;820;-61
2021/12/29 01:17:59;;;;;;;;;;;;;;;;;;5072748;28;979;-61
2021/12/29 01:20:25;;;;;;;;;;;;;;;;;;5073172;28;896;-61
2021/12/29 01:22:51;;;;;;;;;;;;;;;;;;5072984;28;962;-61
2021/12/29 01:25:17;;;;;;;;;;;;;;;;;;5072526;28;868;-61
2021/12/29 01:27:43;;;;;;;;;;;;;;;;;;5072804;28;895;-61
2021/12/29 01:30:10;;;;;;;;;;;;;;;;;;5072970;28;1094;-61
2021/12/29 01:32:36;;;;;;;;;;;;;;;;;;5073214;28;1914;-61
2021/12/29 01:35:02;;;;;;;;;;;;;;;;;;5073140;28;861;-60
2021/12/29 01:37:28;;;;;;;;;;;;;;;;;;5071585;28;830;-60
2021/12/29 01:39:53;;;;;;;;;;;;;;;;;;5073011;28;975;-60
2021/12/29 01:42:19;;;;;;;;;;;;;;;;;;5072241;28;1357;-60
2021/12/29 01:44:44;;;;;;;;;;;;;;;;;;5073500;28;879;-61
2021/12/29 01:47:09;;;;;;;;;;;;;;;;;;5072469;28;951;-61
2021/12/29 01:49:35;;;;;;;;;;;;;;;;;;5072726;28;924;-61
2021/12/29 01:52:10;;;;;;;;;;;;;;;;;;5072786;28;1014;-61
2021/12/29 01:54:36;;;;;;;;;;;;;;;;;;5072781;28;1913;-61
2021/12/29 01:57:03;;;;;;;;;;;;;;;;;;5071136;28;1198;-61
2021/12/29 01:59:29;;;;;;;;;;;;;;;;;;5072524;28;762;-61
2021/12/29 02:01:54;;;;;;;;;;;;;;;;;;5072851;28;849;-61
2021/12/29 02:04:20;;;;;;;;;;;;;;;;;;5072571;28;896;-61
2021/12/29 02:06:46;;;;;;;;;;;;;;;;;;5072589;28;982;-60
2021/12/29 02:09:11;;;;;;;;;;;;;;;;;;5072364;28;1032;-60
2021/12/29 02:11:37;;;;;;;;;;;;;;;;;;5072446;28;833;-61
2021/12/29 02:14:04;;;;;;;;;;;;;;;;;;5072237;28;1963;-61
2021/12/29 02:16:29;;;;;;;;;;;;;;;;;;5072070;28;979;-61
2021/12/29 02:18:59;;;;;;;;;;;;;;;;;;5070707;28;963;-61
2021/12/29 02:21:26;;;;;;;;;;;;;;;;;;5071757;28;868;-60
2021/12/29 02:24:37;;;;;;;;;;;;;;;;;;5072509;28;856;-60
2021/12/29 02:26:40;;;;;;;;;;;;;;;;;;5069634;28;1600;-60
2021/12/29 02:29:08;;;;;;;;;;;;;;;;;;5072486;28;830;-61
2021/12/29 02:31:33;;;;;;;;;;;;;;;;;;5071682;28;920;-61
2021/12/29 02:34:00;;;;;;;;;;;;;;;;;;5071608;28;1906;-60
2021/12/29 02:36:27;;;;;;;;;;;;;;;;;;5071682;28;833;-61
2021/12/29 02:38:55;;;;;;;;;;;;;;;;;;5072754;28;993;-61
2021/12/29 02:41:22;;;;;;;;;;;;;;;;;;5071871;28;1402;-61
2021/12/29 02:43:49;;;;;;;;;;;;;;;;;;5072371;28;896;-61
2021/12/29 02:46:15;;;;;;;;;;;;;;;;;;5071971;28;923;-60
2021/12/29 02:48:46;;;;;;;;;;;;;;;;;;5071731;28;845;-60
2021/12/29 02:51:11;;;;;;;;;;;;;;;;;;5071219;28;961;-60
2021/12/29 02:53:37;;;;;;;;;;;;;;;;;;5072077;28;1971;-60
2021/12/29 02:56:02;;;;;;;;;;;;;;;;;;5070438;28;844;-60
2021/12/29 02:58:28;;;;;;;;;;;;;;;;;;5071473;28;863;-60
2021/12/29 03:00:54;;;;;;;;;;;;;;;;;;5071564;28;877;-60
2021/12/29 03:03:21;;;;;;;;;;;;;;;;;;5071085;28;892;-60
2021/12/29 03:05:46;;;;;;;;;;;;;;;;;;5071629;28;987;-60
2021/12/29 03:08:13;;;;;;;;;;;;;;;;;;5071151;28;821;-61
2021/12/29 03:10:38;;;;;;;;;;;;;;;;;;5069966;28;1442;-60
2021/12/29 03:13:03;;;;;;;;;;;;;;;;;;5070076;28;1902;-60
2021/12/29 03:15:29;;;;;;;;;;;;;;;;;;5071404;28;892;-60
2021/12/29 03:17:54;;;;;;;;;;;;;;;;;;5070103;28;817;-60
2021/12/29 03:20:19;;;;;;;;;;;;;;;;;;5071247;28;845;-60
2021/12/29 03:22:45;;;;;;;;;;;;;;;;;;5071877;28;923;-60
2021/12/29 03:25:10;;;;;;;;;;;;;;;;;;5071514;28;845;-60
2021/12/29 03:27:35;;;;;;;;;;;;;;;;;;5071478;28;829;-60
2021/12/29 03:30:01;;;;;;;;;;;;;;;;;;5071469;28;947;-60
2021/12/29 03:32:39;;;;;;;;;;;;;;;;;;5071302;28;894;-60
2021/12/29 03:35:04;;;;;;;;;;;;;;;;;;5071215;28;879;-61
2021/12/29 03:37:30;;;;;;;;;;;;;;;;;;5071295;28;919;-61
2021/12/29 03:39:55;;;;;;;;;;;;;;;;;;5071130;28;1058;-61
2021/12/29 03:42:20;;;;;;;;;;;;;;;;;;5073321;28;1208;-60
2021/12/29 03:44:45;;;;;;;;;;;;;;;;;;5075211;28;891;-60
2021/12/29 03:47:11;;;;;;;;;;;;;;;;;;5075030;28;836;-60
2021/12/29 03:49:36;;;;;;;;;;;;;;;;;;5074462;28;887;-61
2021/12/29 03:52:02;;;;;;;;;;;;;;;;;;5074958;28;999;-60
2021/12/29 03:54:27;;;;;;;;;;;;;;;;;;5073446;28;1909;-60
2021/12/29 03:56:53;;;;;;;;;;;;;;;;;;5075015;28;1038;-60
2021/12/29 03:59:18;;;;;;;;;;;;;;;;;;5074395;28;891;-60
2021/12/29 04:01:44;;;;;;;;;;;;;;;;;;5056724;28;1298;-59
2021/12/29 04:04:09;;;;;;;;;;;;;;;;;;5073197;28;733;-61
2021/12/29 04:06:34;;;;;;;;;;;;;;;;;;5073693;28;817;-61
2021/12/29 04:08:59;;;;;;;;;;;;;;;;;;5074914;28;900;-61
2021/12/29 04:11:25;;;;;;;;;;;;;;;;;;5056950;28;1187;-61
2021/12/29 04:13:50;;;;;;;;;;;;;;;;;;5074682;28;1911;-61
2021/12/29 04:16:18;;;;;;;;;;;;;;;;;;5075128;28;877;-61
2021/12/29 04:19:40;;;;;;;;;;;;;;;;;;5072846;28;1794;-61
2021/12/29 04:21:34;;;;;;;;;;;;;;;;;;5073792;28;1529;-61
2021/12/29 04:23:59;;;;;;;;;;;;;;;;;;5074561;28;932;-61
2021/12/29 04:26:25;;;;;;;;;;;;;;;;;;5072774;28;1234;-61
2021/12/29 04:28:50;;;;;;;;;;;;;;;;;;5074494;28;904;-61
2021/12/29 04:31:16;;;;;;;;;;;;;;;;;;5073165;28;912;-61
2021/12/29 04:33:42;;;;;;;;;;;;;;;;;;5074209;28;1902;-61
2021/12/29 04:36:08;;;;;;;;;;;;;;;;;;5074278;28;942;-61
2021/12/29 04:38:33;;;;;;;;;;;;;;;;;;5073867;28;856;-61
2021/12/29 04:40:58;;;;;;;;;;;;;;;;;;5074178;28;922;-61
2021/12/29 04:43:25;;;;;;;;;;;;;;;;;;5073386;28;1181;-61
2021/12/29 04:45:51;;;;;;;;;;;;;;;;;;5073773;28;880;-60
2021/12/29 04:48:17;;;;;;;;;;;;;;;;;;5073835;28;931;-61
2021/12/29 04:51:04;;;;;;;;;;;;;;;;;;5073875;28;837;-59
2021/12/29 04:53:29;;;;;;;;;;;;;;;;;;5072785;28;1972;-60
2021/12/29 04:55:55;;;;;;;;;;;;;;;;;;5072679;28;999;-60
2021/12/29 04:58:23;;;;;;;;;;;;;;;;;;5073509;28;982;-60
2021/12/29 05:00:50;;;;;;;;;;;;;;;;;;5072647;28;890;-60
2021/12/29 05:03:15;;;;;;;;;;;;;;;;;;5074278;28;928;-60
2021/12/29 05:05:53;;;;;;;;;;;;;;;;;;5074101;28;812;-60
2021/12/29 05:08:24;;;;;;;;;;;;;;;;;;5073984;28;833;-61
2021/12/29 05:10:51;;;;;;;;;;;;;;;;;;5056585;28;864;-60
2021/12/29 05:13:17;;;;;;;;;;;;;;;;;;5073500;28;1901;-60
2021/12/29 05:15:42;;;;;;;;;;;;;;;;;;5073498;28;951;-60
2021/12/29 05:18:07;;;;;;;;;;;;;;;;;;5073567;28;1054;-60
2021/12/29 05:20:33;;;;;;;;;;;;;;;;;;5074013;28;833;-60
2021/12/29 05:22:58;;;;;;;;;;;;;;;;;;5073674;28;1045;-60
2021/12/29 05:25:24;;;;;;;;;;;;;;;;;;5074169;28;939;-62
2021/12/29 05:27:50;;;;;;;;;;;;;;;;;;5072567;28;1113;-60
2021/12/29 05:30:15;;;;;;;;;;;;;;;;;;5073011;28;1007;-60
2021/12/29 05:32:40;;;;;;;;;;;;;;;;;;5073534;28;1906;-61
2021/12/29 05:35:06;;;;;;;;;;;;;;;;;;5073306;28;903;-60
2021/12/29 05:37:32;;;;;;;;;;;;;;;;;;5073460;28;931;-60
2021/12/29 05:39:57;;;;;;;;;;;;;;;;;;5073473;28;1027;-61
2021/12/29 05:42:22;;;;;;;;;;;;;;;;;;5073079;28;1306;-61
2021/12/29 05:44:48;;;;;;;;;;;;;;;;;;5073531;28;865;-61
2021/12/29 05:47:13;;;;;;;;;;;;;;;;;;5072429;28;1607;-61
2021/12/29 05:49:39;;;;;;;;;;;;;;;;;;5073687;28;860;-61
2021/12/29 05:52:04;;;;;;;;;;;;;;;;;;5074237;28;873;-61
2021/12/29 05:54:29;;;;;;;;;;;;;;;;;;5073447;28;1914;-61
2021/12/29 05:56:54;;;;;;;;;;;;;;;;;;5073673;28;845;-62
2021/12/29 05:59:20;;;;;;;;;;;;;;;;;;5072776;28;852;-61
2021/12/29 06:01:45;;;;;;;;;;;;;;;;;;5073093;28;951;-61
2021/12/29 06:04:11;;;;;;;;;;;;;;;;;;5072370;28;798;-61
2021/12/29 06:06:36;;;;;;;;;;;;;;;;;;5072410;28;904;-61
2021/12/29 06:09:02;;;;;;;;;;;;;;;;;;5072491;28;841;-61
2021/12/29 06:11:28;;;;;;;;;;;;;;;;;;5072521;28;757;-61
2021/12/29 06:13:53;;;;;;;;;;;;;;;;;;5054674;28;1910;-61
2021/12/29 06:16:18;;;;;;;;;;;;;;;;;;5072405;28;896;-61
2021/12/29 06:18:44;;;;;;;;;;;;;;;;;;5072425;28;849;-61
2021/12/29 06:21:16;;;;;;;;;;;;;;;;;;5070900;28;1171;-61
2021/12/29 06:23:41;;;;;;;;;;;;;;;;;;5072209;28;797;-61
2021/12/29 06:26:07;;;;;;;;;;;;;;;;;;5071894;28;770;-61
2021/12/29 06:28:32;;;;;;;;;;;;;;;;;;5071909;28;987;-61
2021/12/29 06:30:57;;;;;;;;;;;;;;;;;;5072072;28;975;-62
2021/12/29 06:33:22;;;;;;;;;;;;;;;;;;5071990;28;1961;-61
2021/12/29 06:35:47;;;;;;;;;;;;;;;;;;5071969;28;895;-61
2021/12/29 06:38:13;;;;;;;;;;;;;;;;;;5072146;28;795;-61
2021/12/29 06:40:38;;;;;;;;;;;;;;;;;;5072034;28;1066;-61
2021/12/29 06:43:03;;;;;;;;;;;;;;;;;;5071863;28;1316;-60
2021/12/29 06:45:29;;;;;;;;;;;;;;;;;;5072575;28;809;-62
2021/12/29 06:47:54;;;;;;;;;;;;;;;;;;5072331;28;944;-60
2021/12/29 06:50:20;;;;;;;;;;;;;;;;;;5072113;28;816;-61
2021/12/29 06:52:45;;;;;;;;;;;;;;;;;;5071870;28;1898;-60
2021/12/29 06:55:11;;;;;;;;;;;;;;;;;;5072098;28;852;-60
2021/12/29 06:57:36;;;;;;;;;;;;;;;;;;5071806;28;860;-60
2021/12/29 07:00:04;;;;;;;;;;;;;;;;;;5071957;28;848;-60
2021/12/29 07:02:29;;;;;;;;;;;;;;;;;;5071773;28;867;-60
2021/12/29 07:04:54;;;;;;;;;;;;;;;;;;5071720;28;809;-60
2021/12/29 07:07:19;;;;;;;;;;;;;;;;;;5071486;28;1035;-60
2021/12/29 07:09:44;;;;;;;;;;;;;;;;;;5071827;28;927;-59
2021/12/29 07:12:10;;;;;;;;;;;;;;;;;;5071903;28;824;-60
2021/12/29 07:14:38;;;;;;;;;;;;;;;;;;5071503;28;1959;-60
2021/12/29 07:17:03;;;;;;;;;;;;;;;;;;5074773;28;927;-60
2021/12/29 07:19:28;;;;;;;;;;;;;;;;;;5075031;28;1191;-60
2021/12/29 07:21:54;;;;;;;;;;;;;;;;;;5056880;28;1160;-60
2021/12/29 07:24:19;;;;;;;;;;;;;;;;;;5066942;28;1160;-60
2021/12/29 07:26:44;;;;;;;;;;;;;;;;;;5062345;28;1132;-60
2021/12/29 07:29:09;;;;;;;;;;;;;;;;;;5055422;28;879;-60
2021/12/29 07:31:35;;;;;;;;;;;;;;;;;;5054441;28;1018;-61
2021/12/29 07:34:00;;;;;;;;;;;;;;;;;;5055433;28;1875;-61
2021/12/29 07:36:26;;;;;;;;;;;;;;;;;;5055616;28;798;-60
2021/12/29 07:38:51;;;;;;;;;;;;;;;;;;5055938;28;1037;-61
2021/12/29 07:41:16;;;;;;;;;;;;;;;;;;5054160;28;1598;-61
2021/12/29 07:43:42;;;;;;;;;;;;;;;;;;5055100;28;1278;-61
2021/12/29 07:46:08;;;;;;;;;;;;;;;;;;5055451;28;918;-61
2021/12/29 07:48:34;;;;;;;;;;;;;;;;;;5055245;28;805;-61
2021/12/29 07:51:00;;;;;;;;;;;;;;;;;;5054723;28;884;-61
2021/12/29 07:53:26;;;;;;;;;;;;;;;;;;5055359;28;1972;-61
2021/12/29 07:55:51;;;;;;;;;;;;;;;;;;5054603;28;964;-61
2021/12/29 07:58:16;;;;;;;;;;;;;;;;;;5054726;28;995;-60
2021/12/29 08:00:42;;;;;;;;;;;;;;;;;;5054529;28;999;-60
2021/12/29 08:03:10;;;;;;;;;;;;;;;;;;5054689;28;972;-61
2021/12/29 08:05:35;;;;;;;;;;;;;;;;;;5054930;28;842;-61
2021/12/29 08:08:02;;;;;;;;;;;;;;;;;;5054556;28;900;-61
2021/12/29 08:10:27;;;;;;;;;;;;;;;;;;5054488;28;892;-61
2021/12/29 08:12:52;;;;;;;;;;;;;;;;;;5054378;28;1906;-60
2021/12/29 08:15:18;;;;;;;;;;;;;;;;;;5054683;28;900;-61
2021/12/29 08:17:44;;;;;;;;;;;;;;;;;;5052914;28;1605;-61
2021/12/29 08:20:09;;;;;;;;;;;;;;;;;;5054705;28;821;-61
2021/12/29 08:22:34;;;;;;;;;;;;;;;;;;5053438;28;912;-61
2021/12/29 08:25:00;;;;;;;;;;;;;;;;;;5054255;28;956;-61
2021/12/29 08:27:25;;;;;;;;;;;;;;;;;;5053479;28;840;-61
2021/12/29 08:29:50;;;;;;;;;;;;;;;;;;5054427;28;989;-61
2021/12/29 08:32:16;;;;;;;;;;;;;;;;;;5054802;28;829;-59
2021/12/29 08:34:41;;;;;;;;;;;;;;;;;;5054631;28;1977;-61
2021/12/29 08:37:06;;;;;;;;;;;;;;;;;;5054026;28;825;-61
2021/12/29 08:39:32;;;;;;;;;;;;;;;;;;5054377;28;934;-61
2021/12/29 08:41:57;;;;;;;;;;;;;;;;;;5054345;28;1184;-62
2021/12/29 08:44:22;;;;;;;;;;;;;;;;;;5054415;28;970;-62
2021/12/29 08:46:48;;;;;;;;;;;;;;;;;;5053871;28;1214;-61
2021/12/29 08:49:14;;;;;;;;;;;;;;;;;;5054108;28;904;-61
2021/12/29 08:51:40;;;;;;;;;;;;;;;;;;5053777;28;896;-61
2021/12/29 08:54:05;;;;;;;;;;;;;;;;;;5053750;28;1973;-61
2021/12/29 08:56:30;;;;;;;;;;;;;;;;;;5053755;28;911;-61
2021/12/29 08:58:56;;;;;;;;;;;;;;;;;;5053751;28;782;-62
2021/12/29 09:01:22;;;;;;;;;;;;;;;;;;5053551;28;991;-61
2021/12/29 09:03:48;;;;;;;;;;;;;;;;;;5052225;28;1027;-61
2021/12/29 09:06:15;;;;;;;;;;;;;;;;;;5052882;28;592;-61
2021/12/29 09:08:40;;;;;;;;;;;;;;;;;;5053247;28;920;-61
2021/12/29 09:11:05;;;;;;;;;;;;;;;;;;5052844;28;978;-61
2021/12/29 09:13:30;;;;;;;;;;;;;;;;;;5052957;28;1913;-60
2021/12/29 09:15:57;;;;;;;;;;;;;;;;;;5053034;28;845;-61
2021/12/29 09:18:26;;;;;;;;;;;;;;;;;;5053068;28;1084;-60
2021/12/29 09:20:52;;;;;;;;;;;;;;;;;;5052946;28;842;-61
2021/12/29 09:23:17;;;;;;;;;;;;;;;;;;5053335;28;932;-60
2021/12/29 09:25:44;;;;;;;;;;;;;;;;;;5053461;28;809;-60
2021/12/29 09:28:11;;;;;;;;;;;;;;;;;;5051375;28;1395;-61
2021/12/29 09:30:37;;;;;;;;;;;;;;;;;;5053290;28;881;-60
2021/12/29 09:33:03;;;;;;;;;;;;;;;;;;5052707;28;1989;-61
2021/12/29 09:35:28;;;;;;;;;;;;;;;;;;5052758;28;1022;-60
2021/12/29 09:37:54;;;;;;;;;;;;;;;;;;5052918;28;941;-61
2021/12/29 09:40:20;;;;;;;;;;;;;;;;;;5052226;28;991;-61
2021/12/29 09:42:46;;;;;;;;;;;;;;;;;;5052870;28;1192;-61
2021/12/29 09:45:12;;;;;;;;;;;;;;;;;;5052357;28;836;-61
2021/12/29 09:47:37;;;;;;;;;;;;;;;;;;5052483;28;955;-61
2021/12/29 09:50:04;;;;;;;;;;;;;;;;;;5052605;28;892;-61
2021/12/29 09:52:33;;;;;;;;;;;;;;;;;;5052572;28;1233;-62
2021/12/29 09:54:59;;;;;;;;;;;;;;;;;;5052167;28;1895;-62
2021/12/29 09:57:24;;;;;;;;;;;;;;;;;;5052930;28;889;-61
2021/12/29 09:59:50;;;;;;;;;;;;;;;;;;5052865;28;813;-62
2021/12/29 10:02:15;;;;;;;;;;;;;;;;;;5049226;28;1317;-61
2021/12/29 10:04:40;;;;;;;;;;;;;;;;;;5052065;28;916;-61
2021/12/29 10:07:14;;;;;;;;;;;;;;;;;;5052091;28;762;-61
2021/12/29 10:09:39;;;;;;;;;;;;;;;;;;5052427;28;1073;-61
2021/12/29 10:12:09;;;;;;;;;;;;;;;;;;5050652;28;750;-61
2021/12/29 10:14:34;;;;;;;;;;;;;;;;;;5052223;28;1906;-61
2021/12/29 10:16:59;;;;;;;;;;;;;;;;;;5052342;28;907;-60
2021/12/29 10:19:25;;;;;;;;;;;;;;;;;;5052235;28;848;-61
2021/12/29 10:21:50;;;;;;;;;;;;;;;;;;5051064;28;943;-61
2021/12/29 10:24:17;;;;;;;;;;;;;;;;;;5051673;28;1302;-61
2021/12/29 10:26:47;;;;;;;;;;;;;;;;;;5052300;28;842;-61
2021/12/29 10:29:15;;;;;;;;;;;;;;;;;;5051799;28;871;-61
2021/12/29 10:31:42;;;;;;;;;;;;;;;;;;5052006;28;904;-61
2021/12/29 10:34:09;;;;;;;;;;;;;;;;;;5051581;28;1894;-61
2021/12/29 10:36:37;;;;;;;;;;;;;;;;;;5052407;28;852;-62
2021/12/29 10:39:02;;;;;;;;;;;;;;;;;;5051550;28;1150;-61
2021/12/29 10:41:28;;;;;;;;;;;;;;;;;;5052024;28;1302;-61
2021/12/29 10:44:04;;;;;;;;;;;;;;;;;;5051765;28;799;-61
2021/12/29 10:46:31;;;;;;;;;;;;;;;;;;5051940;28;809;-61
2021/12/29 10:48:57;;;;;;;;;;;;;;;;;;5051531;28;821;-61
2021/12/29 10:51:28;;;;;;;;;;;;;;;;;;5050175;28;908;-61
2021/12/29 10:54:02;;;;;;;;;;;;;;;;;;5051382;28;1959;-61
2021/12/29 10:56:29;;;;;;;;;;;;;;;;;;5051705;28;861;-61
2021/12/29 10:58:54;;;;;;;;;;;;;;;;;;5051355;28;916;-61
2021/12/29 11:01:20;;;;;;;;;;;;;;;;;;5050885;28;848;-61
2021/12/29 11:03:57;;;;;;;;;;;;;;;;;;5051866;28;995;-61
2021/12/29 11:06:25;;;;;;;;;;;;;;;;;;5050397;28;1004;-61
2021/12/29 11:08:53;;;;;;;;;;;;;;;;;;5050415;28;825;-61
2021/12/29 11:11:26;;;;;;;;;;;;;;;;;;5051021;28;770;-61
2021/12/29 11:13:56;;;;;;;;;;;;;;;;;;5051380;28;1965;-61
2021/12/29 11:16:21;;;;;;;;;;;;;;;;;;5050859;28;856;-61
2021/12/29 11:18:51;;;;;;;;;;;;;;;;;;5051322;28;908;-61
2021/12/29 11:21:23;;;;;;;;;;;;;;;;;;5050777;28;822;-61
2021/12/29 11:23:49;;;;;;;;;;;;;;;;;;5050942;28;581;-62
2021/12/29 11:26:14;;;;;;;;;;;;;;;;;;5050759;28;987;-61
2021/12/29 11:28:39;;;;;;;;;;;;;;;;;;5051351;28;837;-61
2021/12/29 11:31:07;;;;;;;;;;;;;;;;;;5050663;28;856;-61
2021/12/29 11:33:32;;;;;;;;;;;;;;;;;;5049064;28;1890;-62
2021/12/29 11:35:59;;;;;;;;;;;;;;;;;;5051133;28;790;-61
2021/12/29 11:38:25;;;;;;;;;;;;;;;;;;5032473;28;3095;-61
2021/12/29 11:40:51;;;;;;;;;;;;;;;;;;5051197;28;929;-61
2021/12/29 11:43:18;;;;;;;;;;;;;;;;;;5050711;28;1233;-60
2021/12/29 11:45:45;;;;;;;;;;;;;;;;;;5050958;28;895;-60
2021/12/29 11:48:12;;;;;;;;;;;;;;;;;;5050543;28;849;-61
2021/12/29 11:50:39;;;;;;;;;;;;;;;;;;5050882;28;920;-61
2021/12/29 11:53:14;;;;;;;;;;;;;;;;;;5049069;28;1902;-61
2021/12/29 11:55:41;;;;;;;;;;;;;;;;;;5050649;28;797;-60
2021/12/29 11:58:37;;;;;;;;;;;;;;;;;;5050344;28;750;-60
2021/12/29 12:01:02;;;;;;;;;;;;;;;;;;5042428;28;1226;-60
2021/12/29 12:03:51;;;;;;;;;;;;;;;;;;5053783;28;1007;-61
2021/12/29 12:06:25;;;;;;;;;;;;;;;;;;5054683;28;1287;-61
2021/12/29 12:09:20;;;;;;;;;;;;;;;;;;5054984;28;882;-61
2021/12/29 12:11:48;;;;;;;;;;;;;;;;;;5046118;28;1438;-61
2021/12/29 12:14:37;;;;;;;;;;;;;;;;;;5054448;28;1914;-61
2021/12/29 12:17:09;;;;;;;;;;;;;;;;;;5048935;28;1172;-61
2021/12/29 12:19:35;;;;;;;;;;;;;;;;;;5054541;28;899;-61
2021/12/29 12:22:08;;;;;;;;;;;;;;;;;;5054489;28;1162;-61
2021/12/29 12:24:35;;;;;;;;;;;;;;;;;;5054275;28;899;-60
2021/12/29 12:27:00;;;;;;;;;;;;;;;;;;5054778;28;821;-60
2021/12/29 12:29:33;;;;;;;;;;;;;;;;;;5054433;28;807;-61
2021/12/29 12:32:18;;;;;;;;;;;;;;;;;;5054721;28;805;-61
2021/12/29 12:34:50;;;;;;;;;;;;;;;;;;5053460;28;1994;-61
2021/12/29 12:37:20;;;;;;;;;;;;;;;;;;5053940;28;866;-61
2021/12/29 12:39:53;;;;;;;;;;;;;;;;;;5054566;28;955;-61
2021/12/29 12:42:18;;;;;;;;;;;;;;;;;;5053686;28;1219;-60
2021/12/29 12:44:44;;;;;;;;;;;;;;;;;;5052984;28;1278;-61
2021/12/29 12:47:14;;;;;;;;;;;;;;;;;;5053684;28;912;-61
2021/12/29 12:50:00;;;;;;;;;;;;;;;;;;5054039;28;879;-60
2021/12/29 12:52:26;;;;;;;;;;;;;;;;;;5053139;28;1990;-60
2021/12/29 12:54:59;;;;;;;;;;;;;;;;;;5053707;28;1977;-61
2021/12/29 12:57:32;;;;;;;;;;;;;;;;;;5053477;28;871;-61
2021/12/29 13:00:10;;;;;;;;;;;;;;;;;;5053843;28;904;-61
2021/12/29 13:02:37;;;;;;;;;;;;;;;;;;5053285;28;920;-60
2021/12/29 13:05:16;;;;;;;;;;;;;;;;;;5053683;28;912;-60
2021/12/29 13:07:43;;;;;;;;;;;;;;;;;;5053043;28;1248;-60
2021/12/29 13:10:11;;;;;;;;;;;;;;;;;;5053027;28;908;-61
2021/12/29 13:12:37;;;;;;;;;;;;;;;;;;5053115;28;872;-61
2021/12/29 13:15:05;;;;;;;;;;;;;;;;;;5052347;28;1906;-61
2021/12/29 13:17:30;;;;;;;;;;;;;;;;;;5051739;28;1022;-61
2021/12/29 13:19:55;;;;;;;;;;;;;;;;;;5053519;28;915;-60
2021/12/29 13:22:27;;;;;;;;;;;;;;;;;;5052894;28;870;-61
2021/12/29 13:24:53;;;;;;;;;;;;;;;;;;5053017;28;923;-60
2021/12/29 13:27:21;;;;;;;;;;;;;;;;;;5053120;28;865;-61
2021/12/29 13:29:55;;;;;;;;;;;;;;;;;;5052796;28;878;-61
2021/12/29 13:32:21;;;;;;;;;;;;;;;;;;5052587;28;813;-61
2021/12/29 13:34:57;;;;;;;;;;;;;;;;;;5052938;28;1906;-62
2021/12/29 13:37:22;;;;;;;;;;;;;;;;;;5052094;28;739;-60
2021/12/29 13:39:51;;;;;;;;;;;;;;;;;;5052479;28;977;-59
2021/12/29 13:42:16;;;;;;;;;;;;;;;;;;5052208;28;1056;-60
2021/12/29 13:44:42;;;;;;;;;;;;;;;;;;5050786;28;872;-61
2021/12/29 13:47:07;;;;;;;;;;;;;;;;;;5052543;28;955;-60
2021/12/29 13:49:32;;;;;;;;;;;;;;;;;;5052099;28;754;-60
2021/12/29 13:51:57;;;;;;;;;;;;;;;;;;5052265;28;893;-61
2021/12/29 13:54:23;;;;;;;;;;;;;;;;;;5051732;28;1934;-61
2021/12/29 13:56:53;;;;;;;;;;;;;;;;;;5052277;28;857;-60
2021/12/29 13:59:22;;;;;;;;;;;;;;;;;;5050647;28;1625;-61
2021/12/29 14:01:56;;;;;;;;;;;;;;;;;;5052082;28;789;-61
2021/12/29 14:04:23;;;;;;;;;;;;;;;;;;5051456;28;770;-61
2021/12/29 14:06:59;;;;;;;;;;;;;;;;;;5051757;28;983;-61
2021/12/29 14:09:28;;;;;;;;;;;;;;;;;;5051715;28;927;-61
2021/12/29 14:12:03;;;;;;;;;;;;;;;;;;5052300;28;782;-61
2021/12/29 14:14:29;;;;;;;;;;;;;;;;;;5051596;28;1906;-61
2021/12/29 14:16:54;;;;;;;;;;;;;;;;;;5052384;28;837;-61
2021/12/29 14:19:23;;;;;;;;;;;;;;;;;;5052119;28;880;-61
2021/12/29 14:21:48;;;;;;;;;;;;;;;;;;5052076;28;825;-61
2021/12/29 14:24:15;;;;;;;;;;;;;;;;;;5052436;28;810;-61
2021/12/29 14:26:45;;;;;;;;;;;;;;;;;;5051765;28;841;-61
2021/12/29 14:29:11;;;;;;;;;;;;;;;;;;5052038;28;782;-61
2021/12/29 14:31:38;;;;;;;;;;;;;;;;;;5051340;28;816;-61
2021/12/29 14:34:04;;;;;;;;;;;;;;;;;;5064225;28;1963;-61
2021/12/29 14:36:35;;;;;;;;;;;;;;;;;;5068896;28;1779;-61
2021/12/29 14:39:03;;;;;;;;;;;;;;;;;;5070973;28;1905;-61
2021/12/29 14:41:28;;;;;;;;;;;;;;;;;;5070238;28;892;-62
2021/12/29 14:44:01;;;;;;;;;;;;;;;;;;5069869;28;1380;-61
2021/12/29 14:46:26;;;;;;;;;;;;;;;;;;5070423;28;856;-61
2021/12/29 14:48:52;;;;;;;;;;;;;;;;;;5071852;28;899;-61
2021/12/29 14:51:19;;;;;;;;;;;;;;;;;;5071593;28;571;-62
2021/12/29 14:53:44;;;;;;;;;;;;;;;;;;5071246;28;1914;-62
2021/12/29 14:56:13;;;;;;;;;;;;;;;;;;5071269;28;846;-61
2021/12/29 14:58:39;;;;;;;;;;;;;;;;;;5070540;28;928;-61
2021/12/29 15:01:11;;;;;;;;;;;;;;;;;;5070208;28;1587;-61
2021/12/29 15:03:37;;;;;;;;;;;;;;;;;;5071015;28;864;-62
2021/12/29 15:06:02;;;;;;;;;;;;;;;;;;5071299;28;754;-62
2021/12/29 15:08:28;;;;;;;;;;;;;;;;;;5071126;28;1863;-62
2021/12/29 15:10:55;;;;;;;;;;;;;;;;;;5071450;28;805;-62
2021/12/29 15:13:23;;;;;;;;;;;;;;;;;;5071165;28;1956;-62
2021/12/29 15:15:49;;;;;;;;;;;;;;;;;;5071428;28;860;-62
2021/12/29 15:18:22;;;;;;;;;;;;;;;;;;5071611;28;908;-62
2021/12/29 15:20:49;;;;;;;;;;;;;;;;;;5071619;28;920;-62
2021/12/29 15:23:16;;;;;;;;;;;;;;;;;;5071600;28;825;-62
2021/12/29 15:25:41;;;;;;;;;;;;;;;;;;5070748;28;825;-62
2021/12/29 15:28:07;;;;;;;;;;;;;;;;;;5071753;28;900;-62
2021/12/29 15:30:34;;;;;;;;;;;;;;;;;;5071110;28;872;-61
2021/12/29 15:33:00;;;;;;;;;;;;;;;;;;5071223;28;1894;-59
2021/12/29 15:35:26;;;;;;;;;;;;;;;;;;5071108;28;1058;-61
2021/12/29 15:37:51;;;;;;;;;;;;;;;;;;5073178;28;887;-61
2021/12/29 15:40:17;;;;;;;;;;;;;;;;;;5074962;28;897;-61
2021/12/29 15:42:43;;;;;;;;;;;;;;;;;;5074503;28;1303;-62
2021/12/29 15:45:10;;;;;;;;;;;;;;;;;;5075210;28;848;-61
2021/12/29 15:47:36;;;;;;;;;;;;;;;;;;5074974;28;924;-61
2021/12/29 15:50:01;;;;;;;;;;;;;;;;;;5075315;28;829;-61
2021/12/29 15:52:27;;;;;;;;;;;;;;;;;;5074311;28;808;-61
2021/12/29 15:54:52;;;;;;;;;;;;;;;;;;5075278;28;1975;-61
2021/12/29 15:57:20;;;;;;;;;;;;;;;;;;5075299;28;954;-61
2021/12/29 15:59:45;;;;;;;;;;;;;;;;;;5073815;28;1016;-61
2021/12/29 16:02:10;;;;;;;;;;;;;;;;;;5075341;28;821;-61
2021/12/29 16:04:36;;;;;;;;;;;;;;;;;;5074743;28;852;-61
2021/12/29 16:07:02;;;;;;;;;;;;;;;;;;5074955;28;871;-62
2021/12/29 16:09:27;;;;;;;;;;;;;;;;;;5074468;28;808;-62
2021/12/29 16:11:53;;;;;;;;;;;;;;;;;;5074299;28;896;-61
2021/12/29 16:14:19;;;;;;;;;;;;;;;;;;5074583;28;1918;-60
2021/12/29 16:16:45;;;;;;;;;;;;;;;;;;5074785;28;876;-61
2021/12/29 16:19:10;;;;;;;;;;;;;;;;;;5074635;28;983;-61
2021/12/29 16:21:36;;;;;;;;;;;;;;;;;;5074875;28;900;-61
2021/12/29 16:24:01;;;;;;;;;;;;;;;;;;5074119;28;793;-62
2021/12/29 16:26:26;;;;;;;;;;;;;;;;;;5073966;28;939;-62
2021/12/29 16:28:53;;;;;;;;;;;;;;;;;;5074689;28;812;-62
2021/12/29 16:31:18;;;;;;;;;;;;;;;;;;5074693;28;884;-62
2021/12/29 16:33:44;;;;;;;;;;;;;;;;;;5074192;28;1965;-61
2021/12/29 16:36:09;;;;;;;;;;;;;;;;;;5074251;28;896;-62
2021/12/29 16:38:34;;;;;;;;;;;;;;;;;;5074009;28;986;-62
2021/12/29 16:41:02;;;;;;;;;;;;;;;;;;5074415;28;921;-62
2021/12/29 16:43:28;;;;;;;;;;;;;;;;;;5073586;28;1087;-62
2021/12/29 16:45:54;;;;;;;;;;;;;;;;;;5074378;28;825;-62
2021/12/29 16:48:19;;;;;;;;;;;;;;;;;;5073368;28;1042;-62
2021/12/29 16:50:44;;;;;;;;;;;;;;;;;;5073205;28;841;-62
2021/12/29 16:53:10;;;;;;;;;;;;;;;;;;5073648;28;1911;-62
2021/12/29 16:55:39;;;;;;;;;;;;;;;;;;5073153;28;826;-60
2021/12/29 16:58:04;;;;;;;;;;;;;;;;;;5073835;28;932;-60
2021/12/29 17:00:29;;;;;;;;;;;;;;;;;;5073561;28;875;-60
2021/12/29 17:02:55;;;;;;;;;;;;;;;;;;5073713;28;994;-59
2021/12/29 17:05:21;;;;;;;;;;;;;;;;;;5073523;28;829;-59
2021/12/29 17:07:47;;;;;;;;;;;;;;;;;;5073323;28;907;-60
2021/12/29 17:10:13;;;;;;;;;;;;;;;;;;5073850;28;805;-59
2021/12/29 17:12:40;;;;;;;;;;;;;;;;;;5072159;28;864;-59